Lacey, Arkansas
Current Conditions -  °F | °C
As of 6:53 AM on Wednesday 26 Nov 2014 (Local Time) from KLLQ Reporting Station
Clear Clear  
Wind Chill: 37°   Ceiling: Unl
Heat Index: 37°   Visibility: 10mi
Dew Point: 30°   Wind: 3mph
Humidity: 76%   Direction: 150°SSE
Pressure: 30.12"   Gusts: NA
Location:  33.5819°N, 91.7907°W
Report Text: KLLQ 261253Z AUTO 15003KT 10SM CLR 03/M01 A3012 RMK AO2 SLP200 T00281011
Loading
Personal Weather Stations






























Interactive Weather Map New forecast layout! Learn more

10-Day Weather Forecast

Advertisements
Track Severe Weather on mobile